Air Resources Laboratory banner image
Air Resources Laboratory web site National Oceanic and Atmospheric Administration (NOAA)

ms metar


KBIX 222256Z AUTO 20008KT 10SM CLR 30/22 A2997 RMK AO2 LTG DSNT N SLP152
 T02950219=
KCBM 222256Z AUTO 00000KT 10SM CLR 28/21 A2997 RMK AO2 SLP150 T02840206 $=
KGLH 222253Z 08004KT 10SM CLR 29/21 A2996 RMK AO2 SLP149 T02940206 $=
KGPT 222253Z 18007KT 10SM CLR 30/21 A2996 RMK AO2 LTG DSNT N SLP145 T03000211=
KGTR 222256Z 00000KT 10SM FEW002 30/21 A2998 RMK AO2 RAE09 SLP151 P0000
 T03000211=
KGWO 222253Z AUTO 35003KT 10SM CLR 29/22 A2996 RMK AO2 SLP143 T02940222=
KHBG 222253Z AUTO 17012G18KT 10SM TS FEW049 SCT070 OVC090 23/21 A3001 RMK AO2
 PK WND 31028/2213 LTG DSNT ALQDS TSB00 PRESRR SLP160 T02280206 PWINO $=
KHEZ 222256Z AUTO 13007KT 10SM CLR 30/20 A2996 RMK AO2 LTG DSNT NW SLP145
 T03000200=
KHKS 222253Z 18007KT 10SM CLR 26/20 A2998 RMK AO2 LTG DSNT E SLP144 T02610200=
KJAN 222254Z 16006KT 10SM -RA FEW040 SCT070 BKN110 24/21 A2998 RMK AO2 RAB48
 SLP147 P0000 T02440211 $=
KLUL 222255Z AUTO 33003KT 10SM SCT110 24/23 A2999 RMK AO2 T02440228=
KMCB 222253Z AUTO 10004KT 10SM CLR 28/20 A2997 RMK AO2 SLP142 T02830200=
KMEI 222258Z 34003KT 10SM CLR 28/21 A2998 RMK AO2 SLP148 T02830206=
KNMM 222256Z 00000KT 10SM FEW040 FEW130 SCT200 BKN300 28/23 A2998 RMK AO2
 SLP160 T2 SET T02780228=
KOLV 222250Z 00000KT 10SM FEW025 BKN095 OVC250 21/21 A2999 RMK TSE50 TS E MOV E=
KPIB 222256Z AUTO 18004KT 10SM -TSRA BKN050 25/21 A3000 RMK AO2 LTG DSNT ALQDS
 RAB09 SLP155 P0000 T02500206=
KPQL 222253Z 16005KT 10SM FEW029 29/21 A2998 RMK AO2 SLP152 T02890211=
KTUP 222253Z 36005KT 10SM CLR 26/20 A2998 RMK AO2 SLP149 T02610200 $=
KVKS 222255Z AUTO 00000KT 1SM BR SCT003 BKN030 BKN045 22/21 RMK A01=